createdAt,value
2022-08-26T00:00:53.892Z,21.95
2022-08-26T00:03:21.976Z,18.30
2022-08-26T00:05:49.523Z,22.43
2022-08-26T00:08:17.314Z,16.10
2022-08-26T00:10:44.293Z,18.00
2022-08-26T00:13:11.805Z,18.65
2022-08-26T00:15:39.395Z,17.55
2022-08-26T00:18:21.907Z,18.85
2022-08-26T00:20:49.517Z,16.80
2022-08-26T00:23:17.392Z,17.02
2022-08-26T00:25:44.386Z,17.17
2022-08-26T00:28:11.590Z,21.57
2022-08-26T00:30:38.707Z,19.45
2022-08-26T00:33:06.054Z,17.95
2022-08-26T00:35:35.434Z,22.38
2022-08-26T00:38:03.500Z,20.77
2022-08-26T00:40:37.250Z,18.75
2022-08-26T00:43:05.776Z,18.98
2022-08-26T00:45:46.981Z,19.83
2022-08-26T00:48:17.947Z,20.48
2022-08-26T00:50:52.853Z,18.30
2022-08-26T00:53:24.038Z,20.25
2022-08-26T00:55:59.043Z,21.50
2022-08-26T00:58:29.224Z,20.77
2022-08-26T01:00:56.097Z,21.05
2022-08-26T01:03:27.647Z,20.02
2022-08-26T01:05:57.634Z,20.42
2022-08-26T01:08:24.938Z,22.63
2022-08-26T01:10:54.949Z,23.83
2022-08-26T01:13:23.990Z,23.45
2022-08-26T01:15:55.466Z,25.10
2022-08-26T01:18:23.470Z,19.98
2022-08-26T01:21:10.099Z,23.05
2022-08-26T01:23:41.238Z,19.73
2022-08-26T01:26:21.700Z,19.98
2022-08-26T01:28:51.847Z,23.73
2022-08-26T01:31:23.251Z,21.70
2022-08-26T01:34:01.698Z,25.27
2022-08-26T01:36:29.503Z,24.63
2022-08-26T01:38:56.765Z,25.27
2022-08-26T01:41:27.446Z,23.58
2022-08-26T01:43:57.219Z,24.80
2022-08-26T01:46:28.342Z,23.90
2022-08-26T01:48:57.131Z,27.02
2022-08-26T01:51:26.283Z,29.43
2022-08-26T01:53:53.831Z,22.90
2022-08-26T01:56:23.183Z,27.40
2022-08-26T01:58:54.345Z,28.40
2022-08-26T02:01:22.777Z,29.38
2022-08-26T02:04:15.722Z,28.63
2022-08-26T02:06:43.623Z,30.33
2022-08-26T02:09:11.551Z,32.35
2022-08-26T02:11:38.975Z,35.20
2022-08-26T02:14:13.148Z,36.70
2022-08-26T02:16:42.919Z,31.38
2022-08-26T02:19:18.778Z,36.15
2022-08-26T02:21:51.166Z,35.72
2022-08-26T02:24:27.313Z,35.70
2022-08-26T02:26:56.529Z,38.20
2022-08-26T02:29:44.723Z,40.80
2022-08-26T02:32:11.762Z,37.25
2022-08-26T02:34:40.798Z,34.53
2022-08-26T02:37:11.417Z,39.08
2022-08-26T02:39:40.653Z,39.70
2022-08-26T02:42:07.702Z,37.27
2022-08-26T02:44:34.809Z,37.60
2022-08-26T02:47:01.971Z,42.88
2022-08-26T02:49:28.977Z,45.38
2022-08-26T02:51:56.026Z,50.15
2022-08-26T02:54:23.493Z,45.72
2022-08-26T02:56:50.515Z,42.90
2022-08-26T02:59:17.344Z,38.67
2022-08-26T03:01:44.483Z,40.55
2022-08-26T03:04:12.941Z,47.92
2022-08-26T03:06:41.535Z,47.40
2022-08-26T03:09:08.929Z,52.43
2022-08-26T03:11:36.369Z,50.65
2022-08-26T03:14:04.016Z,47.50
2022-08-26T03:16:37.699Z,55.63
2022-08-26T03:19:07.406Z,49.33
2022-08-26T03:21:35.167Z,48.47
2022-08-26T03:24:03.621Z,51.30
2022-08-26T03:26:31.042Z,51.00
2022-08-26T03:28:57.906Z,46.75
2022-08-26T03:31:25.316Z,55.45
2022-08-26T03:33:53.974Z,52.27
2022-08-26T03:36:23.685Z,50.55
2022-08-26T03:38:51.637Z,55.25
2022-08-26T03:41:18.459Z,50.03
2022-08-26T03:43:45.251Z,52.80
2022-08-26T03:46:14.856Z,52.03
2022-08-26T03:48:41.650Z,48.63
2022-08-26T03:51:14.530Z,53.38
2022-08-26T03:53:46.145Z,65.28
2022-08-26T03:56:12.925Z,59.63
2022-08-26T03:58:39.791Z,54.25
2022-08-26T04:01:10.445Z,50.65
2022-08-26T04:03:37.542Z,53.78
2022-08-26T04:06:04.430Z,60.75
2022-08-26T04:08:31.240Z,58.45
2022-08-26T04:10:58.476Z,57.95
2022-08-26T04:13:25.333Z,59.38
2022-08-26T04:15:52.119Z,53.67
2022-08-26T04:18:18.944Z,54.73
2022-08-26T04:20:45.764Z,54.60
2022-08-26T04:23:12.533Z,56.33
2022-08-26T04:25:39.598Z,53.00
2022-08-26T04:28:07.421Z,52.90
2022-08-26T04:30:38.410Z,54.10
2022-08-26T04:33:12.939Z,49.87
2022-08-26T04:35:40.288Z,49.75
2022-08-26T04:38:10.984Z,48.30
2022-08-26T04:40:42.714Z,50.47
2022-08-26T04:43:13.547Z,50.53
2022-08-26T04:45:41.697Z,50.88
2022-08-26T04:48:08.494Z,51.10
2022-08-26T04:50:37.944Z,51.73
2022-08-26T04:53:05.102Z,47.13
2022-08-26T04:55:39.733Z,57.15
2022-08-26T04:58:10.132Z,56.50
2022-08-26T05:00:37.503Z,54.77
2022-08-26T05:03:04.419Z,53.42
2022-08-26T05:05:32.448Z,45.83
2022-08-26T05:07:59.227Z,49.25
2022-08-26T05:10:26.104Z,47.75
2022-08-26T05:12:53.432Z,49.33
2022-08-26T05:15:20.413Z,45.55
2022-08-26T05:17:47.178Z,42.92
2022-08-26T05:20:14.135Z,47.40
2022-08-26T05:22:40.900Z,48.85
2022-08-26T05:25:08.090Z,46.47
2022-08-26T05:27:34.946Z,43.92
2022-08-26T05:30:01.820Z,42.53
2022-08-26T05:32:28.963Z,42.20
2022-08-26T05:34:56.111Z,39.70
2022-08-26T05:37:23.182Z,39.28
2022-08-26T05:39:51.127Z,37.50
2022-08-26T05:42:18.293Z,42.70
2022-08-26T05:44:51.855Z,35.40
2022-08-26T05:47:22.757Z,39.60
2022-08-26T05:49:51.659Z,36.42
2022-08-26T05:52:19.182Z,33.78
2022-08-26T05:54:45.995Z,33.22
2022-08-26T05:57:14.657Z,34.50
2022-08-26T05:59:41.497Z,37.25
2022-08-26T06:02:08.784Z,37.78
2022-08-26T06:04:35.958Z,37.23
2022-08-26T06:07:03.255Z,34.92
2022-08-26T06:09:32.361Z,36.57
2022-08-26T06:11:59.399Z,31.13
2022-08-26T06:14:26.203Z,31.00
2022-08-26T06:16:53.119Z,33.20
2022-08-26T06:19:19.893Z,33.10
2022-08-26T06:21:54.010Z,33.65
2022-08-26T06:24:21.163Z,34.75
2022-08-26T06:26:56.732Z,36.33
2022-08-26T06:29:25.729Z,35.15
2022-08-26T06:31:53.857Z,36.35
2022-08-26T06:34:20.753Z,37.80
2022-08-26T06:36:48.002Z,33.70
2022-08-26T06:39:16.871Z,32.92
2022-08-26T06:41:44.874Z,30.67
2022-08-26T06:44:13.085Z,32.65
2022-08-26T06:46:41.261Z,33.53
2022-08-26T06:49:08.272Z,31.20
2022-08-26T06:51:38.344Z,35.08
2022-08-26T06:54:06.321Z,29.00
2022-08-26T06:56:40.175Z,29.95
2022-08-26T06:59:07.873Z,26.60
2022-08-26T07:01:38.247Z,29.48
2022-08-26T07:04:10.662Z,28.55
2022-08-26T07:06:40.361Z,26.70
2022-08-26T07:09:10.161Z,27.07
2022-08-26T07:11:38.359Z,28.73
2022-08-26T07:14:05.893Z,30.35
2022-08-26T07:16:32.664Z,33.42
2022-08-26T07:18:59.900Z,27.77
2022-08-26T07:21:30.231Z,28.83
2022-08-26T07:24:01.472Z,28.83
2022-08-26T07:26:30.456Z,26.52
2022-08-26T07:28:58.480Z,28.75
2022-08-26T07:31:28.049Z,34.45
2022-08-26T07:33:57.441Z,26.40
2022-08-26T07:36:25.909Z,25.25
2022-08-26T07:38:52.935Z,23.95
2022-08-26T07:41:21.979Z,26.40
2022-08-26T07:43:49.955Z,24.20
2022-08-26T07:46:16.717Z,24.05
2022-08-26T07:48:46.064Z,23.00
2022-08-26T07:51:15.004Z,24.83
2022-08-26T07:53:43.095Z,25.40
2022-08-26T07:56:09.909Z,24.08
2022-08-26T07:58:38.387Z,23.10
2022-08-26T08:01:05.630Z,26.35
2022-08-26T08:03:34.280Z,23.58
2022-08-26T08:06:01.089Z,23.45
2022-08-26T08:08:29.216Z,24.23
2022-08-26T08:10:57.317Z,26.67
2022-08-26T08:13:24.596Z,22.17
2022-08-26T08:15:51.504Z,29.50
2022-08-26T08:18:20.584Z,23.17
2022-08-26T08:20:59.223Z,23.08
2022-08-26T08:23:32.584Z,26.57
2022-08-26T08:26:08.472Z,22.40
2022-08-26T08:28:36.920Z,21.77
2022-08-26T08:31:04.209Z,20.45
2022-08-26T08:33:33.667Z,19.60
2022-08-26T08:36:01.041Z,23.00
2022-08-26T08:38:28.859Z,22.63
2022-08-26T08:40:55.639Z,25.67
2022-08-26T08:43:32.233Z,20.67
2022-08-26T08:46:11.066Z,16.77
2022-08-26T08:48:45.534Z,17.98
2022-08-26T08:51:27.351Z,15.90
2022-08-26T08:53:56.143Z,19.58
2022-08-26T08:56:35.260Z,18.80
2022-08-26T08:59:13.983Z,18.97
2022-08-26T09:01:59.568Z,16.97
2022-08-26T09:04:54.779Z,13.73
2022-08-26T09:07:38.111Z,16.52
2022-08-26T09:10:28.809Z,13.30
2022-08-26T09:12:55.601Z,17.52
2022-08-26T09:15:30.288Z,14.65
2022-08-26T09:18:00.350Z,15.98
2022-08-26T09:20:56.694Z,13.90
2022-08-26T09:23:23.569Z,14.93
2022-08-26T09:26:01.136Z,17.02
2022-08-26T09:28:30.357Z,15.02
2022-08-26T09:31:14.339Z,18.23
2022-08-26T09:33:41.794Z,17.20
2022-08-26T09:36:24.813Z,16.48
2022-08-26T09:38:53.483Z,15.93
2022-08-26T09:41:25.075Z,16.75
2022-08-26T09:44:08.396Z,16.60
2022-08-26T09:46:46.524Z,16.70
2022-08-26T09:49:56.358Z,18.40
2022-08-26T09:52:24.720Z,18.48
2022-08-26T09:55:10.782Z,18.88
2022-08-26T09:57:55.177Z,20.00
2022-08-26T10:00:40.982Z,18.20
2022-08-26T10:03:12.154Z,14.23
2022-08-26T10:06:06.006Z,17.73
2022-08-26T10:08:37.126Z,15.50
2022-08-26T10:11:22.486Z,15.52
2022-08-26T10:13:58.440Z,16.17
2022-08-26T10:16:36.911Z,16.70
2022-08-26T10:19:11.384Z,16.75
2022-08-26T10:21:49.945Z,14.07
2022-08-26T10:24:32.495Z,14.43
2022-08-26T10:27:03.207Z,16.90
2022-08-26T10:29:40.901Z,18.43
2022-08-26T10:32:22.667Z,14.55
2022-08-26T10:34:49.663Z,12.95
2022-08-26T10:37:23.009Z,16.73
2022-08-26T10:40:07.060Z,13.05
2022-08-26T10:42:44.871Z,14.95
2022-08-26T10:45:16.569Z,14.48
2022-08-26T10:47:50.640Z,15.60
2022-08-26T10:50:20.307Z,15.15
2022-08-26T10:52:54.672Z,13.50
2022-08-26T10:55:48.153Z,13.15
2022-08-26T10:58:26.060Z,16.33
2022-08-26T11:01:10.276Z,15.52
2022-08-26T11:03:52.552Z,16.90
2022-08-26T11:06:19.330Z,12.48
2022-08-26T11:08:53.320Z,18.42
2022-08-26T11:11:49.666Z,17.30
2022-08-26T11:14:29.320Z,17.10
2022-08-26T11:16:58.821Z,19.48
2022-08-26T11:19:58.813Z,14.60
2022-08-26T11:22:31.088Z,16.30
2022-08-26T11:24:57.835Z,16.98
2022-08-26T11:27:36.698Z,16.13
2022-08-26T11:30:12.566Z,12.40
2022-08-26T11:32:40.277Z,20.25
2022-08-26T11:35:07.143Z,17.02
2022-08-26T11:37:41.210Z,19.25
2022-08-26T11:40:36.430Z,22.42
2022-08-26T11:43:21.125Z,15.73
2022-08-26T11:45:58.858Z,20.50
2022-08-26T11:48:34.991Z,18.40
2022-08-26T11:51:24.674Z,17.75
2022-08-26T11:53:51.634Z,16.00
2022-08-26T11:56:27.454Z,19.40
2022-08-26T11:59:02.014Z,16.73
2022-08-26T12:01:38.350Z,17.50
2022-08-26T12:04:08.843Z,18.70
2022-08-26T12:06:50.573Z,22.52
2022-08-26T12:09:22.611Z,16.70
2022-08-26T12:11:49.928Z,25.20
2022-08-26T12:14:21.953Z,17.80
2022-08-26T12:16:48.993Z,19.75
2022-08-26T12:19:25.894Z,19.08
2022-08-26T12:22:22.200Z,15.13
2022-08-26T12:24:53.121Z,20.20
2022-08-26T12:27:27.246Z,17.58
2022-08-26T12:30:12.506Z,17.10
2022-08-26T12:33:22.259Z,22.30
2022-08-26T12:35:54.337Z,16.70
2022-08-26T12:38:25.374Z,25.08
2022-08-26T12:40:52.539Z,17.48
2022-08-26T12:43:45.286Z,17.88
2022-08-26T12:46:29.650Z,17.52
2022-08-26T12:48:56.961Z,16.73
2022-08-26T12:51:29.988Z,19.50
2022-08-26T12:53:57.354Z,17.45
2022-08-26T12:56:37.534Z,15.75
2022-08-26T12:59:23.390Z,19.67
2022-08-26T13:01:51.049Z,21.27
2022-08-26T13:04:42.832Z,21.67
2022-08-26T13:07:35.873Z,19.87
2022-08-26T13:10:02.711Z,22.95
2022-08-26T13:12:34.963Z,18.15
2022-08-26T13:15:04.279Z,18.20
2022-08-26T13:17:31.262Z,19.38
2022-08-26T13:20:03.228Z,18.57
2022-08-26T13:22:30.963Z,21.77
2022-08-26T13:24:57.847Z,18.35
2022-08-26T13:27:26.330Z,21.23
2022-08-26T13:29:54.083Z,24.33
2022-08-26T13:32:21.572Z,27.25
2022-08-26T13:34:51.540Z,20.90
2022-08-26T13:37:18.462Z,24.40
2022-08-26T13:39:45.286Z,20.87
2022-08-26T13:42:12.100Z,21.88
2022-08-26T13:44:38.995Z,25.58
2022-08-26T13:47:06.894Z,19.02
2022-08-26T13:49:33.741Z,21.83
2022-08-26T13:52:00.546Z,22.13
2022-08-26T13:54:27.389Z,27.38
2022-08-26T13:56:54.229Z,26.25
2022-08-26T13:59:21.074Z,19.73
2022-08-26T14:01:47.923Z,24.40
2022-08-26T14:04:14.779Z,18.60
2022-08-26T14:06:41.585Z,17.88
2022-08-26T14:09:08.393Z,22.05
2022-08-26T14:11:50.631Z,25.57
2022-08-26T14:14:20.969Z,24.77
2022-08-26T14:16:59.544Z,29.95
2022-08-26T14:19:28.659Z,17.05
2022-08-26T14:21:55.548Z,21.30
2022-08-26T14:24:22.461Z,29.13
2022-08-26T14:26:49.270Z,21.30
2022-08-26T14:29:16.824Z,23.02
2022-08-26T14:31:44.316Z,23.48
2022-08-26T14:34:13.765Z,24.83
2022-08-26T14:36:40.624Z,20.90
2022-08-26T14:39:10.403Z,21.98
2022-08-26T14:41:53.893Z,23.42
2022-08-26T14:44:24.365Z,27.30
2022-08-26T14:46:52.385Z,21.87
2022-08-26T14:49:20.088Z,23.20
2022-08-26T14:51:46.963Z,32.85
2022-08-26T14:54:15.224Z,26.67
2022-08-26T14:56:54.606Z,25.08
2022-08-26T14:59:25.497Z,23.75
2022-08-26T15:01:53.337Z,28.42
2022-08-26T15:04:20.928Z,21.07
2022-08-26T15:06:48.613Z,28.90
2022-08-26T15:09:16.402Z,25.80
2022-08-26T15:11:43.293Z,29.20
2022-08-26T15:14:18.997Z,24.38
2022-08-26T15:16:51.037Z,30.73
2022-08-26T15:19:18.944Z,25.35
2022-08-26T15:21:46.065Z,25.17
2022-08-26T15:24:14.106Z,27.45
2022-08-26T15:26:41.253Z,30.55
2022-08-26T15:29:08.104Z,26.00
2022-08-26T15:31:35.524Z,23.48
2022-08-26T15:34:11.016Z,30.33
2022-08-26T15:36:40.166Z,26.85
2022-08-26T15:39:07.717Z,24.85
2022-08-26T15:41:35.364Z,26.50
2022-08-26T15:44:03.480Z,23.13
2022-08-26T15:46:30.981Z,32.90
2022-08-26T15:48:57.875Z,27.67
2022-08-26T15:51:31.547Z,21.95
2022-08-26T15:53:59.565Z,23.42
2022-08-26T15:56:28.864Z,20.80
2022-08-26T15:58:57.207Z,26.55
2022-08-26T16:01:27.721Z,26.40
2022-08-26T16:03:55.805Z,30.17
2022-08-26T16:06:25.731Z,22.93
2022-08-26T16:08:52.525Z,22.20
2022-08-26T16:11:23.309Z,21.52
2022-08-26T16:13:50.529Z,24.50
2022-08-26T16:16:17.951Z,22.15
2022-08-26T16:18:45.558Z,23.48
2022-08-26T16:21:20.191Z,27.30
2022-08-26T16:23:47.417Z,22.97
2022-08-26T16:26:17.095Z,21.42
2022-08-26T16:28:44.051Z,24.60
2022-08-26T16:31:11.678Z,20.60
2022-08-26T16:33:38.813Z,19.40
2022-08-26T16:36:07.044Z,18.43
2022-08-26T16:38:34.712Z,15.57
2022-08-26T16:41:02.166Z,18.67
2022-08-26T16:43:29.265Z,19.17
2022-08-26T16:45:56.592Z,18.40
2022-08-26T16:48:24.027Z,17.60
2022-08-26T16:50:51.589Z,20.92
2022-08-26T16:53:18.438Z,18.00
2022-08-26T16:55:49.413Z,17.23
2022-08-26T16:58:17.336Z,16.08
2022-08-26T17:00:44.141Z,18.85
2022-08-26T17:03:11.174Z,24.42
2022-08-26T17:05:38.128Z,20.02
2022-08-26T17:08:05.264Z,20.92
2022-08-26T17:10:32.716Z,20.93
2022-08-26T17:13:00.121Z,17.03
2022-08-26T17:15:27.387Z,20.75
2022-08-26T17:17:55.262Z,15.20
2022-08-26T17:20:23.531Z,18.20
2022-08-26T17:22:52.058Z,17.20
2022-08-26T17:25:31.790Z,15.60
2022-08-26T17:27:59.194Z,17.38
2022-08-26T17:30:26.009Z,15.15
2022-08-26T17:32:53.894Z,16.33
2022-08-26T17:35:20.926Z,17.30
2022-08-26T17:37:47.890Z,15.52
2022-08-26T17:40:18.083Z,15.00
2022-08-26T17:42:45.427Z,17.17
2022-08-26T17:45:13.152Z,28.42
2022-08-26T17:47:40.555Z,19.73
2022-08-26T17:50:10.709Z,17.00
2022-08-26T17:52:38.491Z,13.45
2022-08-26T17:55:07.173Z,17.93
2022-08-26T17:57:38.789Z,17.05
2022-08-26T18:00:11.971Z,12.75
2022-08-26T18:02:39.246Z,15.98
2022-08-26T18:05:08.060Z,10.20
2022-08-26T18:07:43.533Z,10.95
2022-08-26T18:10:13.694Z,12.23
2022-08-26T18:12:41.129Z,14.18
2022-08-26T18:15:09.379Z,13.05
2022-08-26T18:17:36.608Z,10.90
2022-08-26T18:20:03.634Z,12.50
2022-08-26T18:22:30.409Z,13.43
2022-08-26T18:24:59.003Z,13.77
2022-08-26T18:27:26.722Z,11.10
2022-08-26T18:29:53.510Z,13.80
2022-08-26T18:32:20.294Z,10.15
2022-08-26T18:34:47.079Z,12.40
2022-08-26T18:40:00.698Z,22.40
2022-08-26T18:42:27.845Z,14.27
2022-08-26T18:44:54.702Z,13.20
2022-08-26T18:47:21.697Z,19.17
2022-08-26T18:49:48.580Z,12.40
2022-08-26T18:52:15.750Z,13.60
2022-08-26T18:54:42.938Z,12.73
2022-08-26T18:57:09.748Z,11.87
2022-08-26T18:59:36.570Z,10.48
2022-08-26T19:02:03.679Z,12.00
2022-08-26T19:04:30.528Z,13.35
2022-08-26T19:06:57.476Z,11.80
2022-08-26T19:09:24.249Z,12.18
2022-08-26T19:11:51.048Z,14.13
2022-08-26T19:14:18.870Z,12.88
2022-08-26T19:16:47.916Z,27.98
2022-08-26T19:19:16.023Z,27.02
2022-08-26T19:21:42.885Z,15.87
2022-08-26T19:24:12.303Z,12.27
2022-08-26T19:26:39.127Z,12.05
2022-08-26T19:29:06.021Z,14.68
2022-08-26T19:31:32.861Z,13.13
2022-08-26T19:33:59.678Z,16.52
2022-08-26T19:36:27.948Z,16.23
2022-08-26T19:38:55.165Z,15.35
2022-08-26T19:41:36.582Z,21.73
2022-08-26T19:44:09.128Z,19.85
2022-08-26T19:46:36.227Z,21.33
2022-08-26T19:49:03.483Z,18.38
2022-08-26T19:51:32.310Z,14.55
2022-08-26T19:54:00.700Z,14.70
2022-08-26T19:56:28.247Z,12.60
2022-08-26T19:58:56.048Z,14.32
2022-08-26T20:01:23.492Z,19.38
2022-08-26T20:03:50.515Z,12.95
2022-08-26T20:06:17.910Z,18.40
2022-08-26T20:08:45.177Z,12.93
2022-08-26T20:11:14.633Z,13.30
2022-08-26T20:13:42.666Z,14.70
2022-08-26T20:16:09.589Z,19.52
2022-08-26T20:18:36.408Z,14.45
2022-08-26T20:21:03.265Z,14.13
2022-08-26T20:23:30.050Z,17.20
2022-08-26T20:25:56.880Z,13.70
2022-08-26T20:28:23.709Z,13.68
2022-08-26T20:30:50.558Z,14.88
2022-08-26T20:33:17.382Z,14.93
2022-08-26T20:35:44.173Z,15.73
2022-08-26T20:38:11.269Z,18.90
2022-08-26T20:40:38.183Z,16.70
2022-08-26T20:43:05.050Z,16.58
2022-08-26T20:45:32.053Z,14.57
2022-08-26T20:47:59.003Z,18.05
2022-08-26T20:50:26.045Z,18.02
2022-08-26T20:52:52.884Z,19.45
2022-08-26T20:55:20.671Z,17.35
2022-08-26T20:57:48.857Z,13.32
2022-08-26T21:00:15.936Z,14.18
2022-08-26T21:02:44.449Z,12.15
2022-08-26T21:05:11.306Z,13.60
2022-08-26T21:07:38.161Z,15.15
2022-08-26T21:10:05.784Z,17.48
2022-08-26T21:12:32.703Z,12.00
2022-08-26T21:14:59.529Z,17.02
2022-08-26T21:17:26.426Z,16.30
2022-08-26T21:19:53.860Z,16.25
2022-08-26T21:22:20.939Z,16.40
2022-08-26T21:24:48.008Z,15.13
2022-08-26T21:27:15.863Z,19.23
2022-08-26T21:29:52.950Z,17.30
2022-08-26T21:32:19.757Z,16.58
2022-08-26T21:34:46.601Z,15.48
2022-08-26T21:37:16.816Z,16.35
2022-08-26T21:39:44.359Z,15.75
2022-08-26T21:42:11.205Z,18.23
2022-08-26T21:44:38.015Z,16.33
2022-08-26T21:47:05.131Z,16.50
2022-08-26T21:49:31.970Z,17.45
2022-08-26T21:52:01.266Z,19.35
2022-08-26T21:54:28.137Z,17.03
2022-08-26T21:56:54.945Z,20.23
2022-08-26T21:59:21.789Z,19.80
2022-08-26T22:01:48.790Z,16.92
2022-08-26T22:04:16.840Z,15.43
2022-08-26T22:06:47.454Z,16.35
2022-08-26T22:09:17.130Z,17.05
2022-08-26T22:11:44.652Z,17.90
2022-08-26T22:14:12.203Z,16.23
2022-08-26T22:16:39.262Z,17.13
2022-08-26T22:19:06.417Z,17.50
2022-08-26T22:21:33.274Z,16.67
2022-08-26T22:24:00.202Z,16.70
2022-08-26T22:26:30.600Z,20.63
2022-08-26T22:28:59.517Z,16.40
2022-08-26T22:31:37.121Z,18.15
2022-08-26T22:34:11.452Z,20.38
2022-08-26T22:36:44.059Z,18.25
2022-08-26T22:39:12.873Z,16.75
2022-08-26T22:41:39.809Z,16.15
2022-08-26T22:44:06.630Z,17.25
2022-08-26T22:46:33.487Z,17.10
2022-08-26T22:49:00.363Z,16.90
2022-08-26T22:51:27.160Z,14.70
2022-08-26T22:53:53.963Z,20.25
2022-08-26T22:56:20.801Z,21.00
2022-08-26T22:58:47.901Z,19.08
2022-08-26T23:01:14.908Z,16.60
2022-08-26T23:03:41.928Z,19.02
2022-08-26T23:06:09.541Z,16.45
2022-08-26T23:08:37.456Z,21.10
2022-08-26T23:11:08.660Z,17.27
2022-08-26T23:13:35.577Z,17.13
2022-08-26T23:16:05.271Z,16.35
2022-08-26T23:18:32.843Z,19.70
2022-08-26T23:20:59.719Z,21.65
2022-08-26T23:23:27.262Z,19.85
2022-08-26T23:25:55.674Z,18.70
2022-08-26T23:28:23.106Z,20.15
2022-08-26T23:30:50.428Z,18.05
2022-08-26T23:33:17.265Z,17.33
2022-08-26T23:35:44.113Z,19.88
2022-08-26T23:38:11.775Z,18.80
2022-08-26T23:40:41.082Z,17.92
2022-08-26T23:43:09.815Z,18.38
2022-08-26T23:45:36.868Z,19.13
2022-08-26T23:48:04.449Z,22.23
2022-08-26T23:50:31.933Z,25.75
2022-08-26T23:52:58.780Z,28.80
2022-08-26T23:55:25.666Z,24.10
2022-08-26T23:57:52.679Z,22.95
